WMT4KA LIPX-LATI
Flight info
| Callsign | WMT4KA |
|---|---|
| Flight time | 1h 6m |
| Altitude | 35000 |
| Route | TUVDE Y922 KOPER DCT NIKOL DCT NERRA DCT BALHA DCT TIBRI DCT BIGLO L187 LASTI L607 PETAK |
| Aircraft | A321/M-SDE3FGHIRWY/LB1 |
Departure
| Time | 2026-05-09 15:35 |
|---|---|
| Airport | Verona Villafranca Valerio Catullo Airport (LIPX) |
Arrival
| Time | 2026-05-09 16:42 |
|---|---|
| Airport | Tirana International Airport Mother Teresa (LATI) |
| Time | Latitude | Longitude | Altitude | Speed | Heading |
|---|---|---|---|---|---|
| 2026-05-09 15:07 | 45.40359 | 10.90678 | 242 ft | 0 kts | 135° |
| 2026-05-09 15:23 | 45.40360 | 10.90677 | 242 ft | 2 kts | 135° |
| 2026-05-09 15:24 | 45.40375 | 10.90655 | 242 ft | 3 kts | 137° |
| 2026-05-09 15:24 | 45.40393 | 10.90639 | 242 ft | 3 kts | 174° |
| 2026-05-09 15:24 | 45.40412 | 10.90644 | 242 ft | 3 kts | 218° |
| 2026-05-09 15:24 | 45.40420 | 10.90653 | 242 ft | 0 kts | 226° |
| 2026-05-09 15:27 | 45.40411 | 10.90640 | 242 ft | 5 kts | 226° |
| 2026-05-09 15:27 | 45.40363 | 10.90570 | 242 ft | 13 kts | 225° |
| 2026-05-09 15:28 | 45.40298 | 10.90475 | 242 ft | 14 kts | 225° |
| 2026-05-09 15:28 | 45.40261 | 10.90395 | 242 ft | 9 kts | 274° |
| 2026-05-09 15:28 | 45.40296 | 10.90325 | 242 ft | 9 kts | 316° |
| 2026-05-09 15:28 | 45.40333 | 10.90248 | 242 ft | 9 kts | 274° |
| 2026-05-09 15:29 | 45.40318 | 10.90159 | 243 ft | 9 kts | 255° |
| 2026-05-09 15:29 | 45.40303 | 10.90074 | 245 ft | 9 kts | 256° |
| 2026-05-09 15:29 | 45.40290 | 10.89992 | 246 ft | 9 kts | 258° |
| 2026-05-09 15:29 | 45.40319 | 10.89906 | 247 ft | 12 kts | 316° |
| 2026-05-09 15:30 | 45.40385 | 10.89813 | 248 ft | 14 kts | 315° |
| 2026-05-09 15:30 | 45.40394 | 10.89703 | 247 ft | 13 kts | 223° |
| 2026-05-09 15:30 | 45.40321 | 10.89597 | 246 ft | 18 kts | 226° |
| 2026-05-09 15:30 | 45.40214 | 10.89441 | 245 ft | 26 kts | 225° |
| 2026-05-09 15:31 | 45.40086 | 10.89255 | 244 ft | 25 kts | 225° |
| 2026-05-09 15:31 | 45.39963 | 10.89076 | 242 ft | 26 kts | 226° |
| 2026-05-09 15:31 | 45.39881 | 10.88957 | 241 ft | 25 kts | 225° |
| 2026-05-09 15:31 | 45.39758 | 10.88778 | 240 ft | 26 kts | 225° |
| 2026-05-09 15:32 | 45.39632 | 10.88595 | 238 ft | 26 kts | 226° |
| 2026-05-09 15:32 | 45.39504 | 10.88408 | 237 ft | 27 kts | 226° |
| 2026-05-09 15:32 | 45.39335 | 10.88163 | 235 ft | 26 kts | 225° |
| 2026-05-09 15:32 | 45.39248 | 10.88036 | 234 ft | 27 kts | 225° |
| 2026-05-09 15:33 | 45.39117 | 10.87847 | 232 ft | 27 kts | 225° |
| 2026-05-09 15:33 | 45.38987 | 10.87657 | 231 ft | 27 kts | 225° |
| 2026-05-09 15:33 | 45.38891 | 10.87518 | 230 ft | 13 kts | 225° |
| 2026-05-09 15:33 | 45.38832 | 10.87524 | 230 ft | 6 kts | 134° |
| 2026-05-09 15:34 | 45.38800 | 10.87568 | 230 ft | 7 kts | 136° |
| 2026-05-09 15:34 | 45.38764 | 10.87617 | 230 ft | 8 kts | 136° |
| 2026-05-09 15:34 | 45.38763 | 10.87678 | 230 ft | 7 kts | 54° |
| 2026-05-09 15:34 | 45.38797 | 10.87729 | 231 ft | 10 kts | 46° |
| 2026-05-09 15:35 | 45.39010 | 10.88039 | 233 ft | 79 kts | 45° |
| 2026-05-09 15:35 | 45.39548 | 10.88821 | 240 ft | 139 kts | 45° |
| 2026-05-09 15:35 | 45.40323 | 10.89960 | 403 ft | 169 kts | 48° |
| 2026-05-09 15:35 | 45.41056 | 10.91230 | 1077 ft | 166 kts | 63° |
| 2026-05-09 15:36 | 45.41269 | 10.92862 | 1538 ft | 176 kts | 97° |
| 2026-05-09 15:36 | 45.40785 | 10.94555 | 1729 ft | 198 kts | 130° |
| 2026-05-09 15:36 | 45.39670 | 10.95843 | 1965 ft | 217 kts | 145° |
| 2026-05-09 15:36 | 45.38587 | 10.97445 | 2093 ft | 243 kts | 121° |
| 2026-05-09 15:37 | 45.37727 | 10.99646 | 2473 ft | 263 kts | 118° |
| 2026-05-09 15:37 | 45.36912 | 11.01991 | 3237 ft | 264 kts | 116° |
| 2026-05-09 15:37 | 45.36128 | 11.04375 | 4007 ft | 267 kts | 115° |
| 2026-05-09 15:37 | 45.35330 | 11.06778 | 4761 ft | 269 kts | 116° |
| 2026-05-09 15:38 | 45.34507 | 11.09192 | 5479 ft | 273 kts | 117° |
| 2026-05-09 15:38 | 45.33658 | 11.11621 | 6186 ft | 276 kts | 117° |
| 2026-05-09 15:38 | 45.32790 | 11.14068 | 6891 ft | 279 kts | 118° |
| 2026-05-09 15:38 | 45.31904 | 11.16549 | 7553 ft | 282 kts | 117° |
| 2026-05-09 15:39 | 45.31033 | 11.19027 | 8204 ft | 286 kts | 117° |
| 2026-05-09 15:39 | 45.30148 | 11.21589 | 8861 ft | 290 kts | 116° |
| 2026-05-09 15:39 | 45.29258 | 11.24183 | 9548 ft | 294 kts | 116° |
| 2026-05-09 15:39 | 45.28357 | 11.26814 | 10203 ft | 298 kts | 116° |
| 2026-05-09 15:40 | 45.27425 | 11.29535 | 10457 ft | 317 kts | 116° |
| 2026-05-09 15:40 | 45.26422 | 11.32452 | 10581 ft | 339 kts | 116° |
| 2026-05-09 15:40 | 45.25362 | 11.35521 | 10920 ft | 351 kts | 116° |
| 2026-05-09 15:40 | 45.24276 | 11.38649 | 11489 ft | 356 kts | 117° |
| 2026-05-09 15:41 | 45.23176 | 11.41816 | 12075 ft | 360 kts | 117° |
| 2026-05-09 15:41 | 45.22065 | 11.45016 | 12654 ft | 364 kts | 117° |
| 2026-05-09 15:41 | 45.20938 | 11.48253 | 13252 ft | 368 kts | 117° |
| 2026-05-09 15:41 | 45.19795 | 11.51526 | 13824 ft | 372 kts | 117° |
| 2026-05-09 15:42 | 45.18639 | 11.54830 | 14341 ft | 376 kts | 117° |
| 2026-05-09 15:42 | 45.17463 | 11.58181 | 14801 ft | 382 kts | 117° |
| 2026-05-09 15:42 | 45.16273 | 11.61575 | 15303 ft | 387 kts | 117° |
| 2026-05-09 15:42 | 45.15015 | 11.64969 | 15779 ft | 391 kts | 122° |
| 2026-05-09 15:43 | 45.13574 | 11.68261 | 16276 ft | 395 kts | 123° |
| 2026-05-09 15:43 | 45.12113 | 11.71587 | 16771 ft | 400 kts | 123° |
| 2026-05-09 15:43 | 45.10631 | 11.74948 | 17248 ft | 405 kts | 123° |
| 2026-05-09 15:43 | 45.09129 | 11.78343 | 17742 ft | 409 kts | 123° |
| 2026-05-09 15:44 | 45.07609 | 11.81776 | 18217 ft | 414 kts | 123° |
| 2026-05-09 15:44 | 45.06074 | 11.85239 | 18643 ft | 418 kts | 123° |
| 2026-05-09 15:44 | 45.04522 | 11.88742 | 19054 ft | 422 kts | 123° |
| 2026-05-09 15:44 | 45.02973 | 11.92234 | 19521 ft | 425 kts | 123° |
| 2026-05-09 15:45 | 45.01395 | 11.95781 | 19958 ft | 428 kts | 123° |
| 2026-05-09 15:45 | 44.99798 | 11.99365 | 20397 ft | 432 kts | 123° |
| 2026-05-09 15:45 | 44.98189 | 12.02977 | 20834 ft | 436 kts | 123° |
| 2026-05-09 15:45 | 44.96568 | 12.06614 | 21291 ft | 439 kts | 123° |
| 2026-05-09 15:46 | 44.94934 | 12.10273 | 21724 ft | 442 kts | 124° |
| 2026-05-09 15:46 | 44.93284 | 12.13961 | 22135 ft | 445 kts | 124° |
| 2026-05-09 15:46 | 44.91622 | 12.17675 | 22583 ft | 448 kts | 124° |
| 2026-05-09 15:46 | 44.89956 | 12.21394 | 23019 ft | 450 kts | 124° |
| 2026-05-09 15:47 | 44.88276 | 12.25137 | 23420 ft | 453 kts | 124° |
| 2026-05-09 15:47 | 44.86581 | 12.28908 | 23759 ft | 457 kts | 124° |
| 2026-05-09 15:47 | 44.84871 | 12.32705 | 24074 ft | 460 kts | 124° |
| 2026-05-09 15:47 | 44.83151 | 12.36518 | 24402 ft | 463 kts | 124° |
| 2026-05-09 15:48 | 44.81420 | 12.40354 | 24722 ft | 465 kts | 124° |
| 2026-05-09 15:48 | 44.79679 | 12.44213 | 25052 ft | 468 kts | 125° |
| 2026-05-09 15:48 | 44.77928 | 12.48087 | 25368 ft | 470 kts | 125° |
| 2026-05-09 15:48 | 44.76165 | 12.51983 | 25698 ft | 472 kts | 125° |
| 2026-05-09 15:49 | 44.74392 | 12.55893 | 26008 ft | 475 kts | 125° |
| 2026-05-09 15:49 | 44.72611 | 12.59815 | 26319 ft | 477 kts | 125° |
| 2026-05-09 15:49 | 44.70836 | 12.63712 | 26578 ft | 480 kts | 125° |
| 2026-05-09 15:49 | 44.69026 | 12.67677 | 26869 ft | 483 kts | 126° |
| 2026-05-09 15:50 | 44.67207 | 12.71658 | 27158 ft | 485 kts | 126° |
| 2026-05-09 15:50 | 44.65378 | 12.75660 | 27483 ft | 487 kts | 126° |
| 2026-05-09 15:50 | 44.63547 | 12.79671 | 27795 ft | 489 kts | 126° |
| 2026-05-09 15:50 | 44.61702 | 12.83714 | 28077 ft | 491 kts | 126° |
| 2026-05-09 15:51 | 44.59853 | 12.87756 | 28358 ft | 493 kts | 126° |
| 2026-05-09 15:51 | 44.57992 | 12.91802 | 28634 ft | 496 kts | 126° |
| 2026-05-09 15:51 | 44.56110 | 12.95874 | 28879 ft | 498 kts | 126° |
| 2026-05-09 15:51 | 44.54219 | 12.99962 | 29133 ft | 501 kts | 126° |
| 2026-05-09 15:52 | 44.50412 | 13.08191 | 29668 ft | 505 kts | 126° |
| 2026-05-09 15:52 | 44.48501 | 13.12328 | 29935 ft | 507 kts | 126° |
| 2026-05-09 15:52 | 44.46576 | 13.16493 | 30191 ft | 509 kts | 127° |
| 2026-05-09 15:53 | 44.44645 | 13.20661 | 30429 ft | 511 kts | 127° |
| 2026-05-09 15:53 | 44.42703 | 13.24844 | 30698 ft | 512 kts | 127° |
| 2026-05-09 15:53 | 44.40764 | 13.29018 | 30997 ft | 512 kts | 127° |
| 2026-05-09 15:53 | 44.38824 | 13.33187 | 31348 ft | 510 kts | 127° |
| 2026-05-09 15:54 | 44.36913 | 13.37287 | 31669 ft | 509 kts | 127° |
| 2026-05-09 15:54 | 44.34975 | 13.41434 | 31983 ft | 509 kts | 127° |
| 2026-05-09 15:54 | 44.33032 | 13.45580 | 32295 ft | 509 kts | 128° |
| 2026-05-09 15:54 | 44.31094 | 13.49709 | 32602 ft | 508 kts | 128° |
| 2026-05-09 15:55 | 44.29159 | 13.53834 | 32907 ft | 508 kts | 128° |
| 2026-05-09 15:55 | 44.27215 | 13.57970 | 33151 ft | 509 kts | 128° |
| 2026-05-09 15:55 | 44.25269 | 13.62092 | 33410 ft | 509 kts | 128° |
| 2026-05-09 15:55 | 44.23322 | 13.66216 | 33690 ft | 510 kts | 127° |
| 2026-05-09 15:56 | 44.21443 | 13.70416 | 33968 ft | 511 kts | 125° |
| 2026-05-09 15:56 | 44.19668 | 13.74719 | 34224 ft | 512 kts | 123° |
| 2026-05-09 15:56 | 44.17971 | 13.79095 | 34477 ft | 512 kts | 122° |
| 2026-05-09 15:56 | 44.16316 | 13.83490 | 34731 ft | 512 kts | 122° |
| 2026-05-09 15:57 | 44.14665 | 13.87879 | 34949 ft | 512 kts | 122° |
| 2026-05-09 15:57 | 44.11294 | 13.96605 | 35052 ft | 510 kts | 123° |
| 2026-05-09 15:58 | 44.07853 | 14.05209 | 35058 ft | 509 kts | 123° |
| 2026-05-09 15:58 | 44.04381 | 14.13790 | 35052 ft | 509 kts | 123° |
| 2026-05-09 15:59 | 44.00917 | 14.22371 | 35044 ft | 509 kts | 123° |
| 2026-05-09 15:59 | 43.97489 | 14.30922 | 35058 ft | 510 kts | 123° |
| 2026-05-09 16:00 | 43.94029 | 14.39523 | 35061 ft | 510 kts | 123° |
| 2026-05-09 16:00 | 43.90548 | 14.48111 | 35062 ft | 510 kts | 123° |
| 2026-05-09 16:01 | 43.87068 | 14.56689 | 35063 ft | 510 kts | 123° |
| 2026-05-09 16:01 | 43.83587 | 14.65260 | 35061 ft | 510 kts | 123° |
| 2026-05-09 16:02 | 43.80094 | 14.73823 | 35068 ft | 511 kts | 123° |
| 2026-05-09 16:02 | 43.74841 | 14.86654 | 35068 ft | 510 kts | 123° |
| 2026-05-09 16:03 | 43.71327 | 14.95178 | 35064 ft | 510 kts | 123° |
| 2026-05-09 16:03 | 43.67798 | 15.03710 | 35061 ft | 511 kts | 123° |
| 2026-05-09 16:04 | 43.64268 | 15.12239 | 35058 ft | 512 kts | 123° |
| 2026-05-09 16:04 | 43.60733 | 15.20774 | 35061 ft | 512 kts | 124° |
| 2026-05-09 16:05 | 43.57189 | 15.29299 | 35038 ft | 512 kts | 123° |
| 2026-05-09 16:05 | 43.53639 | 15.37801 | 35045 ft | 512 kts | 124° |
| 2026-05-09 16:06 | 43.50078 | 15.46304 | 35048 ft | 512 kts | 124° |
| 2026-05-09 16:06 | 43.46507 | 15.54788 | 35055 ft | 512 kts | 124° |
| 2026-05-09 16:07 | 43.42957 | 15.63216 | 35053 ft | 512 kts | 124° |
| 2026-05-09 16:07 | 43.39377 | 15.71703 | 35049 ft | 513 kts | 124° |
| 2026-05-09 16:08 | 43.35788 | 15.80193 | 35049 ft | 514 kts | 124° |
| 2026-05-09 16:08 | 43.32182 | 15.88687 | 35054 ft | 514 kts | 124° |
| 2026-05-09 16:09 | 43.28564 | 15.97171 | 35044 ft | 515 kts | 124° |
| 2026-05-09 16:09 | 43.24936 | 16.05653 | 35046 ft | 515 kts | 124° |
| 2026-05-09 16:10 | 43.21296 | 16.14137 | 35052 ft | 516 kts | 124° |
| 2026-05-09 16:10 | 43.17650 | 16.22616 | 35063 ft | 517 kts | 124° |
| 2026-05-09 16:11 | 43.13994 | 16.31098 | 35073 ft | 517 kts | 124° |
| 2026-05-09 16:11 | 43.10328 | 16.39579 | 35084 ft | 517 kts | 124° |
| 2026-05-09 16:12 | 43.07280 | 16.46610 | 35078 ft | 517 kts | 124° |
| 2026-05-09 16:12 | 43.03599 | 16.55077 | 35081 ft | 518 kts | 124° |
| 2026-05-09 16:13 | 42.99917 | 16.63539 | 35058 ft | 518 kts | 124° |
| 2026-05-09 16:13 | 42.96240 | 16.71955 | 35070 ft | 518 kts | 124° |
| 2026-05-09 16:14 | 42.92527 | 16.80415 | 35065 ft | 519 kts | 124° |
| 2026-05-09 16:14 | 42.88816 | 16.88857 | 35065 ft | 519 kts | 124° |
| 2026-05-09 16:15 | 42.85101 | 16.97292 | 35069 ft | 519 kts | 124° |
| 2026-05-09 16:15 | 42.81365 | 17.05722 | 35070 ft | 519 kts | 124° |
| 2026-05-09 16:16 | 42.77626 | 17.14143 | 35069 ft | 520 kts | 124° |
| 2026-05-09 16:16 | 42.73877 | 17.22566 | 35075 ft | 520 kts | 124° |
| 2026-05-09 16:17 | 42.70124 | 17.30986 | 35061 ft | 520 kts | 124° |
| 2026-05-09 16:17 | 42.66369 | 17.39398 | 35068 ft | 520 kts | 124° |
| 2026-05-09 16:18 | 42.62610 | 17.47794 | 34989 ft | 518 kts | 124° |
| 2026-05-09 16:18 | 42.60744 | 17.51951 | 34726 ft | 513 kts | 124° |
| 2026-05-09 16:18 | 42.58910 | 17.56026 | 34316 ft | 510 kts | 124° |
| 2026-05-09 16:19 | 42.57062 | 17.60125 | 33870 ft | 507 kts | 124° |
| 2026-05-09 16:19 | 42.55226 | 17.64189 | 33385 ft | 504 kts | 124° |
| 2026-05-09 16:19 | 42.53394 | 17.68233 | 32903 ft | 501 kts | 124° |
| 2026-05-09 16:19 | 42.51576 | 17.72244 | 32445 ft | 497 kts | 124° |
| 2026-05-09 16:20 | 42.49772 | 17.76219 | 31986 ft | 493 kts | 124° |
| 2026-05-09 16:20 | 42.47978 | 17.80164 | 31536 ft | 490 kts | 124° |
| 2026-05-09 16:20 | 42.46199 | 17.84076 | 31095 ft | 486 kts | 123° |
| 2026-05-09 16:20 | 42.44434 | 17.87959 | 30662 ft | 482 kts | 123° |
| 2026-05-09 16:21 | 42.42680 | 17.91814 | 30235 ft | 479 kts | 123° |
| 2026-05-09 16:21 | 42.40935 | 17.95640 | 29745 ft | 475 kts | 123° |
| 2026-05-09 16:21 | 42.39203 | 17.99429 | 29243 ft | 472 kts | 123° |
| 2026-05-09 16:21 | 42.37483 | 18.03189 | 28759 ft | 468 kts | 123° |
| 2026-05-09 16:22 | 42.35771 | 18.06924 | 28279 ft | 465 kts | 123° |
| 2026-05-09 16:22 | 42.34073 | 18.10623 | 27810 ft | 462 kts | 123° |
| 2026-05-09 16:22 | 42.32383 | 18.14302 | 27351 ft | 458 kts | 123° |
| 2026-05-09 16:22 | 42.30735 | 18.17884 | 26903 ft | 456 kts | 123° |
| 2026-05-09 16:23 | 42.29045 | 18.21553 | 26441 ft | 453 kts | 123° |
| 2026-05-09 16:23 | 42.27385 | 18.25155 | 26009 ft | 450 kts | 122° |
| 2026-05-09 16:23 | 42.25735 | 18.28737 | 25576 ft | 448 kts | 122° |
| 2026-05-09 16:23 | 42.24110 | 18.32253 | 25151 ft | 446 kts | 122° |
| 2026-05-09 16:24 | 42.22469 | 18.35799 | 24731 ft | 444 kts | 122° |
| 2026-05-09 16:24 | 42.20836 | 18.39323 | 24320 ft | 442 kts | 122° |
| 2026-05-09 16:24 | 42.19208 | 18.42835 | 23914 ft | 440 kts | 122° |
| 2026-05-09 16:24 | 42.17583 | 18.46339 | 23466 ft | 438 kts | 122° |
| 2026-05-09 16:25 | 42.15968 | 18.49818 | 22988 ft | 436 kts | 122° |
| 2026-05-09 16:25 | 42.14360 | 18.53276 | 22513 ft | 434 kts | 122° |
| 2026-05-09 16:25 | 42.12759 | 18.56711 | 22045 ft | 431 kts | 122° |
| 2026-05-09 16:25 | 42.11167 | 18.60123 | 21584 ft | 429 kts | 122° |
| 2026-05-09 16:26 | 42.09584 | 18.63519 | 21132 ft | 426 kts | 122° |
| 2026-05-09 16:26 | 42.08018 | 18.66884 | 20673 ft | 423 kts | 122° |
| 2026-05-09 16:26 | 42.06459 | 18.70229 | 20224 ft | 420 kts | 122° |
| 2026-05-09 16:26 | 42.04909 | 18.73537 | 19801 ft | 417 kts | 122° |
| 2026-05-09 16:27 | 42.03384 | 18.76782 | 19376 ft | 413 kts | 122° |
| 2026-05-09 16:27 | 42.01850 | 18.80041 | 18961 ft | 410 kts | 122° |
| 2026-05-09 16:27 | 42.00332 | 18.83264 | 18546 ft | 406 kts | 122° |
| 2026-05-09 16:27 | 41.98828 | 18.86456 | 18100 ft | 402 kts | 122° |
| 2026-05-09 16:28 | 41.97337 | 18.89618 | 17622 ft | 398 kts | 122° |
| 2026-05-09 16:28 | 41.95858 | 18.92755 | 17146 ft | 395 kts | 122° |
| 2026-05-09 16:28 | 41.94397 | 18.95857 | 16693 ft | 391 kts | 122° |
| 2026-05-09 16:28 | 41.92949 | 18.98928 | 16240 ft | 387 kts | 122° |
| 2026-05-09 16:29 | 41.91512 | 19.01970 | 15790 ft | 384 kts | 122° |
| 2026-05-09 16:29 | 41.90086 | 19.04985 | 15351 ft | 380 kts | 122° |
| 2026-05-09 16:29 | 41.88672 | 19.07970 | 14917 ft | 377 kts | 122° |
| 2026-05-09 16:29 | 41.87274 | 19.10924 | 14487 ft | 373 kts | 122° |
| 2026-05-09 16:30 | 41.85884 | 19.13853 | 14061 ft | 370 kts | 122° |
| 2026-05-09 16:30 | 41.84504 | 19.16754 | 13621 ft | 367 kts | 122° |
| 2026-05-09 16:30 | 41.83138 | 19.19626 | 13151 ft | 364 kts | 122° |
| 2026-05-09 16:30 | 41.81781 | 19.22471 | 12685 ft | 360 kts | 122° |
| 2026-05-09 16:31 | 41.80451 | 19.25258 | 12239 ft | 357 kts | 122° |
| 2026-05-09 16:31 | 41.79117 | 19.28054 | 11790 ft | 353 kts | 122° |
| 2026-05-09 16:31 | 41.77823 | 19.30757 | 11313 ft | 335 kts | 123° |
| 2026-05-09 16:31 | 41.76428 | 19.33146 | 10885 ft | 318 kts | 130° |
| 2026-05-09 16:32 | 41.75025 | 19.35381 | 10463 ft | 312 kts | 130° |
| 2026-05-09 16:32 | 41.74082 | 19.36886 | 10175 ft | 311 kts | 130° |
| 2026-05-09 16:32 | 41.72252 | 19.39806 | 9576 ft | 308 kts | 129° |
| 2026-05-09 16:32 | 41.70879 | 19.41995 | 9111 ft | 306 kts | 129° |
| 2026-05-09 16:33 | 41.69519 | 19.44165 | 8649 ft | 302 kts | 129° |
| 2026-05-09 16:33 | 41.68181 | 19.46298 | 8181 ft | 296 kts | 129° |
| 2026-05-09 16:33 | 41.66871 | 19.48389 | 7746 ft | 290 kts | 129° |
| 2026-05-09 16:33 | 41.65587 | 19.50437 | 7305 ft | 285 kts | 128° |
| 2026-05-09 16:34 | 41.64554 | 19.52655 | 6871 ft | 279 kts | 111° |
| 2026-05-09 16:34 | 41.64030 | 19.55117 | 6436 ft | 275 kts | 96° |
| 2026-05-09 16:34 | 41.64014 | 19.57671 | 5973 ft | 276 kts | 83° |
| 2026-05-09 16:34 | 41.64214 | 19.60233 | 5523 ft | 278 kts | 83° |
| 2026-05-09 16:35 | 41.64408 | 19.62788 | 5056 ft | 271 kts | 84° |
| 2026-05-09 16:35 | 41.64374 | 19.65262 | 4463 ft | 267 kts | 104° |
| 2026-05-09 16:35 | 41.63582 | 19.67398 | 4154 ft | 249 kts | 130° |
| 2026-05-09 16:35 | 41.62299 | 19.68826 | 3914 ft | 238 kts | 152° |
| 2026-05-09 16:36 | 41.60771 | 19.69486 | 3676 ft | 228 kts | 172° |
| 2026-05-09 16:36 | 41.56217 | 19.70091 | 2784 ft | 200 kts | 174° |
| 2026-05-09 16:37 | 41.54890 | 19.70268 | 2540 ft | 181 kts | 174° |
| 2026-05-09 16:37 | 41.53726 | 19.70424 | 2311 ft | 162 kts | 174° |
| 2026-05-09 16:37 | 41.52632 | 19.70570 | 2091 ft | 155 kts | 174° |
| 2026-05-09 16:37 | 41.51569 | 19.70712 | 1885 ft | 152 kts | 174° |
| 2026-05-09 16:38 | 41.50514 | 19.70853 | 1688 ft | 152 kts | 175° |
| 2026-05-09 16:38 | 41.49445 | 19.70994 | 1443 ft | 155 kts | 175° |
| 2026-05-09 16:38 | 41.48367 | 19.71139 | 1241 ft | 155 kts | 175° |
| 2026-05-09 16:38 | 41.47291 | 19.71275 | 1049 ft | 155 kts | 175° |
| 2026-05-09 16:39 | 41.46225 | 19.71435 | 889 ft | 153 kts | 174° |
| 2026-05-09 16:39 | 41.45167 | 19.71563 | 688 ft | 153 kts | 175° |
| 2026-05-09 16:39 | 41.44108 | 19.71702 | 454 ft | 153 kts | 174° |
| 2026-05-09 16:39 | 41.43054 | 19.71847 | 248 ft | 153 kts | 174° |
| 2026-05-09 16:40 | 41.42029 | 19.71990 | 127 ft | 135 kts | 176° |
| 2026-05-09 16:40 | 41.41247 | 19.72086 | 126 ft | 88 kts | 174° |
| 2026-05-09 16:42 | 41.40858 | 19.71726 | 132 ft | 16 kts | 349° |
| 2026-05-09 16:42 | 41.40969 | 19.71704 | 132 ft | 17 kts | 353° |
| 2026-05-09 16:42 | 41.41087 | 19.71688 | 132 ft | 18 kts | 354° |
| 2026-05-09 16:42 | 41.41213 | 19.71671 | 132 ft | 19 kts | 354° |
| 2026-05-09 16:43 | 41.41344 | 19.71654 | 132 ft | 19 kts | 354° |
| 2026-05-09 16:43 | 41.41482 | 19.71636 | 132 ft | 20 kts | 354° |
| 2026-05-09 16:43 | 41.41627 | 19.71616 | 132 ft | 21 kts | 354° |
| 2026-05-09 16:43 | 41.41776 | 19.71597 | 132 ft | 22 kts | 354° |
| 2026-05-09 16:44 | 41.41879 | 19.71584 | 132 ft | 7 kts | 355° |
| 2026-05-09 16:44 | 41.41927 | 19.71578 | 132 ft | 8 kts | 354° |
| 2026-05-09 16:44 | 41.41985 | 19.71570 | 132 ft | 9 kts | 354° |
| 2026-05-09 16:44 | 41.42029 | 19.71542 | 132 ft | 6 kts | 278° |
| 2026-05-09 16:45 | 41.42029 | 19.71506 | 132 ft | 2 kts | 265° |
| 2026-05-09 16:45 | 41.42028 | 19.71496 | 132 ft | 1 kts | 265° |
| 2026-05-09 16:45 | 41.42028 | 19.71495 | 132 ft | 0 kts | 265° |